Time;durP1;ratioP1;P1;durP2;ratioP2;P2;SDS_P1;SDS_P2;PMS_P1;PMS_P2;Temp;Humidity;BMP_temperature;BMP_pressure;BME280_temperature;BME280_humidity;BME280_pressure;Samples;Min_cycle;Max_cycle;Signal;HPM_P1;HPM_P2
2022/08/15 00:01:33;;;;;;;6.87;3.93;;;;;;;24.99;53.47;99321.34;5072340;28;20182;-63
2022/08/15 00:03:59;;;;;;;13.43;4.03;;;;;;;25.13;52.85;99326.78;5086527;28;20831;-63
2022/08/15 00:06:24;;;;;;;8.30;3.80;;;;;;;25.00;53.53;99323.00;5089285;28;20459;-64
2022/08/15 00:08:53;;;;;;;6.83;3.33;;;;;;;25.02;53.42;99322.50;5089048;28;20623;-64
2022/08/15 00:11:23;;;;;;;9.50;3.47;;;;;;;24.97;53.91;99326.75;5089589;28;20230;-63
2022/08/15 00:13:54;;;;;;;7.30;3.70;;;;;;;25.04;53.93;99332.34;5089046;28;20777;-64
2022/08/15 00:16:19;;;;;;;12.33;4.10;;;;;;;24.67;54.90;99324.16;5089723;28;20843;-63
2022/08/15 00:18:47;;;;;;;10.03;4.23;;;;;;;24.64;55.45;99321.34;5089898;28;20428;-63
2022/08/15 00:21:12;;;;;;;11.00;3.40;;;;;;;24.55;55.72;99321.09;5088422;28;20257;-63
2022/08/15 00:23:40;;;;;;;9.17;4.13;;;;;;;24.69;55.49;99327.41;5088467;28;20473;-63
2022/08/15 00:26:07;;;;;;;11.10;4.03;;;;;;;24.66;56.01;99321.72;5069335;28;20182;-63
2022/08/15 00:28:32;;;;;;;5.77;3.23;;;;;;;24.93;55.00;99323.13;5069215;28;20437;-63
2022/08/15 00:30:58;;;;;;;9.53;3.80;;;;;;;24.96;55.17;99328.03;5067924;28;20488;-63
2022/08/15 00:33:24;;;;;;;9.73;3.50;;;;;;;25.39;54.60;99325.75;5082440;28;20189;-64
2022/08/15 00:35:50;;;;;;;8.60;3.53;;;;;;;25.59;54.10;99325.69;5069149;28;20630;-64
2022/08/15 00:38:20;;;;;;;8.87;3.47;;;;;;;25.75;53.01;99323.56;5068812;28;20427;-64
2022/08/15 00:43:35;;;;;;;5.50;3.60;;;;;;;25.83;53.65;99327.91;5068543;28;20400;-63
2022/08/15 00:46:03;;;;;;;5.60;3.50;;;;;;;25.80;53.76;99334.56;5077514;28;20420;-64
2022/08/15 00:48:43;;;;;;;9.60;4.20;;;;;;;25.88;53.77;99343.88;5089487;28;20185;-64
2022/08/15 00:51:12;;;;;;;6.93;4.27;;;;;;;25.79;54.18;99341.63;5088461;28;20420;-64
2022/08/15 00:53:38;;;;;;;6.67;3.60;;;;;;;25.66;54.03;99339.94;5077965;28;20444;-63
2022/08/15 00:56:03;;;;;;;6.77;3.60;;;;;;;25.65;53.92;99341.22;5088827;28;20459;-63
2022/08/15 00:58:29;;;;;;;11.77;4.17;;;;;;;25.74;53.92;99335.59;5071621;28;20580;-63
2022/08/15 01:00:54;;;;;;;7.67;3.20;;;;;;;25.71;53.96;99336.50;5091191;28;20261;-63
2022/08/15 01:03:27;;;;;;;5.00;2.77;;;;;;;25.67;53.67;99327.09;5091061;28;20182;-63
2022/08/15 01:05:56;;;;;;;6.00;3.50;;;;;;;25.63;53.87;99335.88;5090947;28;20174;-63
2022/08/15 01:08:23;;;;;;;6.17;3.70;;;;;;;25.67;53.62;99332.88;5084780;28;20424;-63
2022/08/15 01:10:48;;;;;;;9.00;3.50;;;;;;;25.51;55.04;99330.00;5074475;28;20500;-63
2022/08/15 01:13:14;;;;;;;8.57;3.73;;;;;;;25.69;53.44;99331.16;5069741;28;20432;-63
2022/08/15 01:15:39;;;;;;;6.10;3.30;;;;;;;25.45;55.02;99334.69;5070721;28;20307;-63
2022/08/15 01:18:05;;;;;;;6.37;3.10;;;;;;;25.46;54.59;99340.03;5070821;28;20514;-63
2022/08/15 01:20:31;;;;;;;4.90;3.20;;;;;;;25.64;54.34;99346.16;5069676;28;20186;-63
2022/08/15 01:23:04;;;;;;;5.27;3.40;;;;;;;25.63;54.62;99344.53;5052593;28;20265;-63
2022/08/15 01:25:34;;;;;;;9.07;3.10;;;;;;;25.67;54.45;99347.34;5073495;28;20440;-63
2022/08/15 01:28:11;;;;;;;10.67;3.50;;;;;;;25.76;54.15;99345.44;5075308;28;20891;-63
2022/08/15 01:30:48;;;;;;;5.40;2.70;;;;;;;25.83;54.19;99356.81;5073461;28;20520;-63
2022/08/15 01:33:14;;;;;;;6.67;3.00;;;;;;;25.87;53.87;99360.44;5091931;28;20552;-63
2022/08/15 01:35:40;;;;;;;8.77;3.27;;;;;;;25.33;56.90;99373.00;5094828;28;20438;-63
2022/08/15 01:38:09;;;;;;;5.10;3.33;;;;;;;25.50;55.43;99372.56;5094862;28;20175;-63
2022/08/15 01:40:54;;;;;;;5.60;3.03;;;;;;;25.69;54.91;99376.63;5077302;28;20485;-63
2022/08/15 01:43:22;;;;;;;6.10;3.10;;;;;;;25.43;56.53;99378.50;5093533;28;20403;-63
2022/08/15 01:45:48;;;;;;;3.70;2.73;;;;;;;25.66;55.43;99374.63;5087062;28;20436;-63
2022/08/15 01:48:17;;;;;;;6.07;2.83;;;;;;;25.59;55.43;99369.03;5072834;28;20442;-63
2022/08/15 01:50:49;;;;;;;4.57;2.57;;;;;;;25.22;58.63;99376.09;5074401;28;20261;-63
2022/08/15 01:53:24;;;;;;;6.57;2.73;;;;;;;25.47;57.31;99361.88;5074202;28;20421;-63
2022/08/15 01:55:59;;;;;;;6.37;3.03;;;;;;;25.46;57.19;99363.16;5073505;28;20869;-63
2022/08/15 01:58:25;;;;;;;3.90;2.73;;;;;;;25.51;57.82;99361.78;5073455;28;20762;-63
2022/08/15 02:01:00;;;;;;;5.60;2.17;;;;;;;25.64;56.49;99366.41;5072266;28;20436;-63
2022/08/15 02:03:33;;;;;;;3.27;2.00;;;;;;;25.59;56.03;99366.94;5082105;28;20189;-63
2022/08/15 02:06:09;;;;;;;6.57;2.67;;;;;;;25.63;56.95;99370.56;5072409;28;20472;-64
2022/08/15 02:08:36;;;;;;;5.03;2.57;;;;;;;25.61;56.72;99366.50;5074617;28;20429;-63
2022/08/15 02:11:04;;;;;;;9.20;2.50;;;;;;;25.59;56.78;99369.84;5071385;28;20483;-63
2022/08/15 02:13:29;;;;;;;5.37;2.27;;;;;;;25.67;56.02;99374.19;5071760;28;20425;-63
2022/08/15 02:15:55;;;;;;;5.40;2.67;;;;;;;25.61;56.44;99366.50;5072920;28;20424;-63
2022/08/15 02:18:20;;;;;;;4.50;2.40;;;;;;;25.73;55.92;99369.47;5073059;28;20175;-63
2022/08/15 02:20:46;;;;;;;4.80;2.27;;;;;;;25.69;56.03;99362.97;5073394;28;20194;-63
2022/08/15 02:23:11;;;;;;;6.33;2.37;;;;;;;25.78;55.67;99353.66;5073038;28;20178;-63
2022/08/15 02:25:37;;;;;;;5.07;2.60;;;;;;;25.80;55.77;99357.72;5072953;28;20175;-63
2022/08/15 02:28:02;;;;;;;2.77;2.00;;;;;;;25.66;56.70;99354.38;5089435;28;20266;-63
2022/08/15 02:30:28;;;;;;;4.43;2.27;;;;;;;25.76;56.07;99362.81;5093413;28;20213;-63
2022/08/15 02:32:53;;;;;;;4.00;2.10;;;;;;;25.81;55.36;99358.53;5091707;28;20186;-63
2022/08/15 02:35:19;;;;;;;4.10;2.70;;;;;;;25.71;56.63;99359.63;5093154;28;20174;-63
2022/08/15 02:37:44;;;;;;;3.97;2.23;;;;;;;25.74;56.21;99359.53;5093129;28;20546;-63
2022/08/15 02:40:12;;;;;;;4.40;1.97;;;;;;;25.74;56.12;99359.53;5093587;28;20642;-63
2022/08/15 02:42:38;;;;;;;4.73;2.37;;;;;;;25.78;55.98;99353.66;5093780;28;20174;-64
2022/08/15 02:45:09;;;;;;;6.80;2.13;;;;;;;25.80;56.02;99359.81;5093195;28;20420;-63
2022/08/15 02:47:35;;;;;;;6.83;2.43;;;;;;;25.79;55.77;99358.97;5091958;28;20950;-63
2022/08/15 02:50:01;;;;;;;3.13;2.00;;;;;;;25.81;56.13;99359.38;5093656;28;20468;-63
2022/08/15 02:52:27;;;;;;;3.27;2.10;;;;;;;25.84;55.65;99346.06;5093659;28;20182;-63
2022/08/15 02:54:52;;;;;;;3.83;2.10;;;;;;;25.85;55.56;99351.38;5093139;28;20641;-63
2022/08/15 02:57:18;;;;;;;3.20;2.00;;;;;;;25.84;55.88;99349.75;5093399;28;20507;-63
2022/08/15 02:59:46;;;;;;;3.20;2.10;;;;;;;25.81;55.91;99365.16;5093328;28;20567;-63
2022/08/15 03:02:12;;;;;;;4.27;2.20;;;;;;;25.69;55.77;99356.38;5093236;28;20216;-63
2022/08/15 03:04:38;;;;;;;5.00;2.43;;;;;;;25.77;55.64;99354.91;5090017;28;20417;-63
2022/08/15 03:07:04;;;;;;;4.07;1.97;;;;;;;25.77;56.12;99352.03;5093223;28;20469;-63
2022/08/15 03:09:29;;;;;;;4.70;2.20;;;;;;;25.79;55.99;99349.50;5092914;28;20460;-64
2022/08/15 03:11:55;;;;;;;6.17;2.47;;;;;;;25.78;55.62;99353.66;5092091;28;20230;-63
2022/08/15 03:14:21;;;;;;;4.20;2.03;;;;;;;25.78;56.14;99354.47;5074904;28;20183;-63
2022/08/15 03:16:48;;;;;;;4.30;1.93;;;;;;;25.78;56.17;99344.97;5072853;28;20421;-63
2022/08/15 03:19:16;;;;;;;4.00;2.03;;;;;;;25.68;56.60;99351.84;5088788;28;20668;-63
2022/08/15 03:21:42;;;;;;;4.30;2.20;;;;;;;25.70;55.84;99347.25;5093210;28;20416;-63
2022/08/15 03:24:08;;;;;;;3.90;1.90;;;;;;;25.72;56.16;99338.94;5091312;28;20446;-63
2022/08/15 03:26:34;;;;;;;5.40;2.53;;;;;;;25.73;56.23;99342.63;5092913;28;20420;-63
2022/08/15 03:28:59;;;;;;;3.43;2.00;;;;;;;25.67;55.98;99342.38;5092548;28;20232;-63
2022/08/15 03:31:25;;;;;;;4.10;1.70;;;;;;;25.54;56.27;99349.34;5092555;28;20228;-63
2022/08/15 03:33:50;;;;;;;3.10;2.00;;;;;;;25.52;56.73;99360.53;5090771;28;20593;-64
2022/08/15 03:36:18;;;;;;;3.87;1.70;;;;;;;25.41;57.20;99345.53;5091442;28;20174;-64
2022/08/15 03:38:45;;;;;;;3.03;1.90;;;;;;;25.57;56.24;99342.63;5090543;28;20629;-64
2022/08/15 03:41:10;;;;;;;4.80;2.00;;;;;;;25.65;56.05;99353.56;5091488;28;20420;-63
2022/08/15 03:43:37;;;;;;;2.87;2.03;;;;;;;25.70;55.80;99346.44;5091661;28;20408;-63
2022/08/15 03:46:05;;;;;;;3.20;2.30;;;;;;;25.68;55.73;99340.28;5083075;28;20304;-63
2022/08/15 03:48:32;;;;;;;3.50;2.00;;;;;;;25.60;56.36;99344.63;5053444;28;20416;-63
2022/08/15 03:50:59;;;;;;;3.67;1.90;;;;;;;25.55;56.44;99340.22;5071790;28;20523;-63
2022/08/15 03:53:28;;;;;;;4.13;1.73;;;;;;;25.50;56.46;99349.44;5070886;28;20500;-63
2022/08/15 03:55:54;;;;;;;5.43;2.33;;;;;;;25.36;57.40;99341.13;5072034;28;20425;-63
2022/08/15 03:58:20;;;;;;;3.13;1.80;;;;;;;25.51;56.64;99342.38;5072252;28;20750;-63
2022/08/15 04:00:47;;;;;;;3.70;1.60;;;;;;;25.36;57.17;99343.19;5071903;28;20418;-63
2022/08/15 04:03:14;;;;;;;3.80;2.07;;;;;;;25.31;57.55;99350.31;5089006;28;20704;-63
2022/08/15 04:05:40;;;;;;;3.13;2.10;;;;;;;25.36;56.79;99355.56;5091905;28;20448;-63
2022/08/15 04:08:06;;;;;;;2.97;1.70;;;;;;;25.53;56.36;99347.72;5092127;28;20914;-63
2022/08/15 04:10:32;;;;;;;4.63;2.00;;;;;;;25.35;56.90;99348.16;5091688;28;20464;-63
2022/08/15 04:12:58;;;;;;;3.43;1.70;;;;;;;25.47;56.52;99340.84;5092026;28;20775;-63
2022/08/15 04:15:23;;;;;;;2.70;1.50;;;;;;;25.42;56.50;99342.19;5089052;28;20655;-63
2022/08/15 04:17:51;;;;;;;4.57;2.23;;;;;;;25.57;56.35;99342.63;5091948;28;20174;-63
2022/08/15 04:20:17;;;;;;;5.57;2.10;;;;;;;25.35;56.98;99348.16;5091531;28;20601;-63
2022/08/15 04:22:44;;;;;;;4.07;2.00;;;;;;;25.46;56.43;99342.94;5091177;28;20423;-63
2022/08/15 04:25:13;;;;;;;5.33;2.13;;;;;;;25.60;55.71;99341.75;5090964;28;20621;-63
2022/08/15 04:27:39;;;;;;;4.70;1.70;;;;;;;25.64;55.44;99328.03;5090395;28;20469;-63
2022/08/15 04:30:05;;;;;;;2.70;1.80;;;;;;;25.67;55.79;99327.09;5090832;28;20448;-64
2022/08/15 04:32:31;;;;;;;3.37;1.90;;;;;;;25.64;55.53;99325.13;5090746;28;20293;-63
2022/08/15 04:34:58;;;;;;;3.30;1.80;;;;;;;25.68;54.76;99323.75;5090808;28;20945;-63
2022/08/15 04:37:25;;;;;;;3.70;2.17;;;;;;;25.54;56.11;99323.31;5091700;28;20261;-63
2022/08/15 04:39:50;;;;;;;3.27;1.80;;;;;;;25.63;55.65;99309.03;5091470;28;20413;-63
2022/08/15 04:42:19;;;;;;;3.93;2.20;;;;;;;25.53;56.14;99310.16;5091479;28;20431;-63
2022/08/15 04:44:45;;;;;;;5.03;2.20;;;;;;;25.64;55.21;99304.88;5090035;28;20197;-63
2022/08/15 04:47:11;;;;;;;3.57;2.10;;;;;;;25.64;55.06;99297.00;5091416;28;20492;-63
2022/08/15 04:49:36;;;;;;;3.73;1.90;;;;;;;25.65;55.01;99292.06;5091473;28;20945;-63
2022/08/15 04:52:07;;;;;;;4.00;2.17;;;;;;;25.69;55.02;99295.66;5091041;28;20191;-63
2022/08/15 04:54:34;;;;;;;5.30;1.97;;;;;;;25.71;54.55;99296.84;5091297;28;20606;-63
2022/08/15 04:56:59;;;;;;;5.83;2.20;;;;;;;25.72;54.51;99292.69;5091202;28;20504;-63
2022/08/15 04:59:25;;;;;;;6.90;2.30;;;;;;;25.72;54.42;99292.69;5091078;28;20771;-63
2022/08/15 05:01:50;;;;;;;4.03;2.20;;;;;;;25.73;54.63;99307.94;5090995;28;20183;-63
2022/08/15 05:04:16;;;;;;;4.53;2.17;;;;;;;25.72;54.53;99307.13;5091172;28;20190;-63
2022/08/15 05:06:41;;;;;;;3.97;1.73;;;;;;;25.73;54.37;99302.97;5091042;28;20265;-63
2022/08/15 05:09:07;;;;;;;10.63;2.80;;;;;;;25.72;54.40;99314.97;5090104;28;20170;-63
2022/08/15 05:11:32;;;;;;;3.97;2.30;;;;;;;25.67;54.67;99318.41;5076229;28;20225;-63
2022/08/15 05:13:57;;;;;;;2.87;2.00;;;;;;;25.68;54.68;99323.75;5070199;28;20210;-64
2022/08/15 05:16:23;;;;;;;5.60;2.23;;;;;;;25.67;54.79;99327.91;5069590;28;20654;-63
2022/08/15 05:18:48;;;;;;;4.60;2.30;;;;;;;25.63;54.50;99335.88;5069860;28;20182;-63
2022/08/15 05:21:14;;;;;;;3.47;1.97;;;;;;;25.66;54.55;99339.94;5069611;28;20175;-63
2022/08/15 05:23:40;;;;;;;6.67;2.30;;;;;;;25.63;54.61;99341.66;5071803;28;20182;-63
2022/08/15 05:26:06;;;;;;;11.13;2.70;;;;;;;25.61;54.36;99344.19;5090764;28;20201;-63
2022/08/15 05:28:32;;;;;;;4.90;2.33;;;;;;;25.45;55.36;99347.09;5090335;28;20749;-63
2022/08/15 05:30:58;;;;;;;4.53;2.30;;;;;;;25.52;54.95;99346.91;5089677;28;20774;-63
2022/08/15 05:33:28;;;;;;;4.10;2.17;;;;;;;25.37;55.27;99339.03;5088391;28;20637;-63
2022/08/15 05:35:56;;;;;;;4.70;2.30;;;;;;;25.24;55.98;99349.66;5089677;28;20413;-63
2022/08/15 05:38:32;;;;;;;3.70;2.03;;;;;;;25.26;55.85;99347.97;5088637;28;20436;-63
2022/08/15 05:40:57;;;;;;;3.73;2.00;;;;;;;25.25;56.04;99352.13;5090072;28;20408;-63
2022/08/15 05:43:34;;;;;;;6.93;2.30;;;;;;;25.27;55.75;99352.47;5090408;28;20957;-63
2022/08/15 05:46:26;;;;;;;3.23;1.80;;;;;;;25.37;55.59;99360.06;5081337;28;20171;-63
2022/08/15 05:49:25;;;;;;;4.40;2.57;;;;;;;25.32;55.46;99369.28;5061304;28;20499;-63
2022/08/15 05:52:17;;;;;;;5.20;2.00;;;;;;;25.23;56.12;99354.59;5065739;28;20433;-63
2022/08/15 05:55:11;;;;;;;4.80;2.10;;;;;;;25.42;55.26;99358.72;5069234;28;20398;-63
2022/08/15 05:57:48;;;;;;;4.57;2.10;;;;;;;25.49;55.19;99355.66;5070646;28;20766;-63
2022/08/15 06:00:15;;;;;;;4.27;2.27;;;;;;;25.51;54.84;99348.16;5070446;28;20466;-63
2022/08/15 06:02:58;;;;;;;5.10;2.47;;;;;;;25.10;56.38;99359.47;5083087;28;20420;-63
2022/08/15 06:05:27;;;;;;;5.40;2.20;;;;;;;25.27;55.97;99352.47;5088991;28;20951;-63
2022/08/15 06:07:52;;;;;;;5.10;2.37;;;;;;;25.32;55.84;99354.84;5090277;28;20461;-63
2022/08/15 06:10:27;;;;;;;4.83;2.27;;;;;;;25.36;55.57;99349.78;5088771;28;20857;-63
2022/08/15 06:13:32;;;;;;;7.10;2.30;;;;;;;25.37;55.48;99344.81;5092051;28;20226;-63
2022/08/15 06:16:02;;;;;;;6.90;2.07;;;;;;;25.43;55.31;99354.59;5093350;28;20494;-63
2022/08/15 06:18:28;;;;;;;4.73;2.13;;;;;;;25.31;55.56;99350.31;5058430;28;20452;-63
2022/08/15 06:21:21;;;;;;;5.47;1.90;;;;;;;25.22;56.24;99355.88;5072649;28;20405;-63
2022/08/15 06:24:05;;;;;;;4.93;2.13;;;;;;;25.23;56.64;99348.81;5073491;28;20482;-63
2022/08/15 06:26:31;;;;;;;3.90;2.10;;;;;;;25.29;55.89;99354.94;5073563;28;20492;-63
2022/08/15 06:29:18;;;;;;;5.50;2.27;;;;;;;25.18;56.35;99348.56;5091817;28;20507;-63
2022/08/15 06:31:47;;;;;;;5.83;2.00;;;;;;;25.40;55.46;99350.53;5093972;28;20259;-63
2022/08/15 06:34:28;;;;;;;5.40;2.90;;;;;;;24.45;59.84;99353.91;5077945;28;20482;-63
2022/08/15 06:37:00;;;;;;;6.17;2.53;;;;;;;24.36;60.87;99356.53;5072489;28;20417;-64
2022/08/15 06:39:49;;;;;;;5.40;2.43;;;;;;;24.86;60.72;99357.13;5071631;28;20432;-64
2022/08/15 06:42:35;;;;;;;6.37;3.67;;;;;;;24.89;61.38;99359.16;5074652;28;20430;-64
2022/08/15 06:45:04;;;;;;;5.33;2.40;;;;;;;24.59;61.56;99350.75;5080780;28;20495;-64
2022/08/15 06:47:30;;;;;;;5.77;3.17;;;;;;;24.31;61.86;99354.19;5071955;28;20418;-64
2022/08/15 06:50:02;;;;;;;4.30;2.67;;;;;;;24.94;60.34;99361.50;5055204;28;20460;-64
2022/08/15 06:52:29;;;;;;;13.77;2.80;;;;;;;24.96;59.45;99367.63;5091640;28;21161;-64
2022/08/15 06:54:54;;;;;;;4.63;2.07;;;;;;;24.47;61.72;99363.72;5091805;28;20589;-64
2022/08/15 06:57:27;;;;;;;4.83;2.20;;;;;;;24.42;60.99;99358.47;5092023;28;20909;-64
2022/08/15 07:00:01;;;;;;;5.47;2.20;;;;;;;24.43;60.79;99354.31;5091162;28;20179;-64
2022/08/15 07:02:52;;;;;;;8.13;2.80;;;;;;;24.14;61.47;99364.81;5081024;28;20438;-63
2022/08/15 07:05:18;;;;;;;5.60;3.00;;;;;;;24.46;61.00;99367.06;5087427;28;20437;-63
2022/08/15 07:07:52;;;;;;;6.40;2.47;;;;;;;24.60;61.19;99369.69;5091862;28;20431;-63
2022/08/15 07:10:32;;;;;;;5.20;2.50;;;;;;;25.05;60.02;99371.56;5090982;28;20201;-63
2022/08/15 07:13:11;;;;;;;4.00;2.40;;;;;;;24.80;59.99;99367.59;5091546;28;20471;-64
2022/08/15 07:15:44;;;;;;;5.03;2.33;;;;;;;24.95;58.92;99366.84;5082476;28;20425;-64
2022/08/15 07:18:14;;;;;;;4.40;2.37;;;;;;;24.57;60.26;99367.63;5070312;28;20516;-63
2022/08/15 07:31:02;;;;;;;7.50;2.30;;;;;;;24.64;58.99;99359.69;5088372;28;20482;-64
2022/08/15 07:33:34;;;;;;;4.67;2.47;;;;;;;25.02;58.75;99363.78;5073900;28;20447;-64
2022/08/15 07:36:29;;;;;;;3.70;2.23;;;;;;;25.13;58.19;99366.44;5080201;28;20417;-64
2022/08/15 07:38:54;;;;;;;4.00;1.93;;;;;;;25.11;58.54;99366.88;5075922;28;20433;-64
2022/08/15 07:41:30;;;;;;;4.20;2.07;;;;;;;24.39;59.41;99364.34;5081599;28;20995;-64
2022/08/15 07:44:00;;;;;;;7.37;2.80;;;;;;;24.76;58.19;99356.13;5086140;28;20188;-64
2022/08/15 07:46:44;;;;;;;4.23;2.57;;;;;;;24.57;58.96;99359.81;5091207;28;20783;-64
2022/08/15 07:49:16;;;;;;;7.27;2.37;;;;;;;24.38;59.16;99354.84;5072062;28;20417;-64
2022/08/15 07:51:44;;;;;;;3.27;2.13;;;;;;;24.44;58.46;99355.16;5085118;28;20428;-64
2022/08/15 07:54:25;;;;;;;8.20;2.77;;;;;;;24.47;58.41;99354.25;5092293;28;20779;-63
2022/08/15 07:56:54;;;;;;;3.43;2.00;;;;;;;24.48;57.88;99356.69;5090656;28;20429;-63
2022/08/15 07:59:25;;;;;;;3.13;2.00;;;;;;;24.60;57.10;99364.75;5072012;28;20862;-63
2022/08/15 08:01:53;;;;;;;3.70;2.30;;;;;;;24.48;57.26;99367.44;5082737;28;20469;-63
2022/08/15 08:04:21;;;;;;;4.17;2.47;;;;;;;24.73;56.84;99357.00;5073189;28;20413;-63
2022/08/15 08:07:13;;;;;;;4.30;2.20;;;;;;;24.52;56.62;99363.22;5087766;28;20447;-64
2022/08/15 08:10:02;;;;;;;5.20;2.00;;;;;;;24.64;56.59;99362.56;5079801;28;20468;-63
2022/08/15 08:12:56;;;;;;;5.03;2.40;;;;;;;24.86;55.65;99360.03;5091475;28;20517;-63
2022/08/15 08:15:30;;;;;;;6.27;2.70;;;;;;;24.69;55.67;99364.13;5060695;28;20420;-63
2022/08/15 08:18:12;;;;;;;4.33;1.90;;;;;;;24.94;55.53;99364.41;5078872;28;20436;-63
2022/08/15 08:20:56;;;;;;;3.70;1.97;;;;;;;24.92;56.06;99369.78;5084912;28;20449;-64
2022/08/15 08:23:32;;;;;;;5.43;2.27;;;;;;;24.78;56.49;99373.00;5069966;28;20772;-64
2022/08/15 08:25:57;;;;;;;4.33;2.20;;;;;;;24.58;56.95;99373.00;5054812;28;20454;-63
2022/08/15 08:28:48;;;;;;;5.80;2.13;;;;;;;24.87;55.89;99367.41;5081482;28;20429;-63
2022/08/15 08:31:21;;;;;;;4.70;2.30;;;;;;;24.83;55.96;99370.41;5089932;28;20213;-63
2022/08/15 08:33:53;;;;;;;4.10;2.00;;;;;;;24.99;56.07;99363.88;5089802;28;20436;-63
2022/08/15 08:36:24;;;;;;;4.97;2.13;;;;;;;25.05;55.35;99368.66;5090845;28;20498;-63
2022/08/15 08:39:19;;;;;;;3.03;1.93;;;;;;;25.09;56.24;99359.91;5089858;28;20523;-63
2022/08/15 08:41:59;;;;;;;6.17;2.80;;;;;;;25.23;55.54;99369.06;5074511;28;20436;-63
2022/08/15 08:44:58;;;;;;;3.87;2.23;;;;;;;25.21;54.89;99368.69;5070563;28;20432;-63
2022/08/15 08:47:44;;;;;;;7.23;2.50;;;;;;;25.20;54.50;99374.91;5088225;28;20431;-63
2022/08/15 08:50:19;;;;;;;7.27;2.50;;;;;;;25.27;54.29;99369.81;5070730;28;20471;-63
2022/08/15 08:52:53;;;;;;;11.43;2.50;;;;;;;25.24;53.94;99375.66;5083220;28;20424;-63
2022/08/15 08:55:29;;;;;;;10.07;2.47;;;;;;;25.19;54.26;99371.19;5089735;28;20501;-63
2022/08/15 08:58:10;;;;;;;7.77;2.40;;;;;;;25.15;53.76;99378.34;5089468;28;20408;-64
2022/08/15 09:00:44;;;;;;;4.27;2.10;;;;;;;25.32;54.14;99375.06;5077624;28;20532;-64
2022/08/15 09:03:14;;;;;;;4.67;1.90;;;;;;;25.42;54.19;99376.88;5084027;28;20432;-64
2022/08/15 09:05:51;;;;;;;3.30;2.30;;;;;;;25.38;53.54;99364.59;5089639;28;20515;-64
2022/08/15 09:08:23;;;;;;;4.83;2.43;;;;;;;25.35;53.22;99371.28;5072591;28;20498;-64
2022/08/15 09:10:50;;;;;;;3.47;2.37;;;;;;;25.42;53.16;99368.22;5069208;28;20473;-64
2022/08/15 09:13:31;;;;;;;3.40;2.10;;;;;;;25.47;53.03;99375.53;5074949;28;20927;-64
2022/08/15 09:16:00;;;;;;;8.00;2.40;;;;;;;25.51;52.85;99374.19;5070334;28;20451;-64
2022/08/15 09:18:30;;;;;;;2.53;1.73;;;;;;;25.42;53.16;99371.09;5085218;28;20413;-64
2022/08/15 09:20:58;;;;;;;3.50;1.97;;;;;;;25.46;52.98;99368.94;5070241;28;20820;-64
2022/08/15 09:23:24;;;;;;;4.07;2.10;;;;;;;25.52;52.80;99370.03;5070884;28;20437;-64
2022/08/15 09:25:58;;;;;;;5.43;2.20;;;;;;;25.52;52.18;99357.63;5088511;28;20469;-64
2022/08/15 09:29:04;;;;;;;5.30;2.30;;;;;;;25.53;52.09;99360.09;5089142;28;20247;-64
2022/08/15 09:31:30;;;;;;;4.87;1.90;;;;;;;25.45;52.54;99357.81;5077611;28;21091;-64
2022/08/15 09:34:19;;;;;;;6.17;2.43;;;;;;;25.54;52.54;99350.13;5072382;28;20853;-64
2022/08/15 09:36:56;;;;;;;3.70;2.07;;;;;;;25.56;52.41;99364.16;5090742;28;20425;-64
2022/08/15 09:39:48;;;;;;;3.93;2.43;;;;;;;25.54;52.32;99352.22;5089324;28;20403;-64
2022/08/15 09:42:29;;;;;;;5.67;2.47;;;;;;;25.57;52.39;99349.25;5071375;28;20561;-64
2022/08/15 09:45:32;;;;;;;5.20;2.50;;;;;;;25.60;52.01;99347.53;5070251;28;20919;-64
2022/08/15 09:48:17;;;;;;;4.13;2.10;;;;;;;25.59;51.60;99343.03;5088799;28;20466;-64
2022/08/15 09:50:51;;;;;;;3.87;2.40;;;;;;;25.60;51.41;99341.75;5091933;28;20512;-64
2022/08/15 09:53:37;;;;;;;7.43;2.87;;;;;;;25.62;51.39;99334.25;5092001;28;20432;-64
2022/08/15 09:56:05;;;;;;;2.40;1.77;;;;;;;25.64;50.57;99334.59;5091610;28;20408;-64
2022/08/15 09:58:35;;;;;;;3.77;2.43;;;;;;;25.65;50.99;99344.88;5092973;28;20452;-64
2022/08/15 10:01:12;;;;;;;4.00;2.20;;;;;;;25.67;50.24;99335.78;5091240;28;20440;-64
2022/08/15 10:03:44;;;;;;;5.23;2.70;;;;;;;25.68;50.41;99328.72;5092870;28;20404;-64
2022/08/15 10:06:18;;;;;;;4.40;2.60;;;;;;;25.72;50.59;99326.56;5092881;28;20423;-64
2022/08/15 10:08:53;;;;;;;6.90;2.73;;;;;;;25.74;50.70;99313.25;5083023;28;20452;-64
2022/08/15 10:11:40;;;;;;;7.20;2.23;;;;;;;25.73;50.07;99313.72;5072230;28;21038;-63
2022/08/15 10:14:26;;;;;;;3.50;2.17;;;;;;;25.75;50.47;99314.09;5072985;28;20420;-63
2022/08/15 10:16:53;;;;;;;5.13;2.53;;;;;;;25.77;50.48;99314.44;5073839;28;20463;-64
2022/08/15 10:19:25;;;;;;;3.40;2.30;;;;;;;25.75;49.48;99309.09;5072581;28;20831;-64
2022/08/15 10:21:51;;;;;;;5.30;2.83;;;;;;;25.75;49.44;99317.78;5072058;28;20796;-64
2022/08/15 10:24:38;;;;;;;5.90;2.93;;;;;;;25.79;49.23;99306.13;5075691;28;20436;-64
2022/08/15 10:27:09;;;;;;;4.60;2.20;;;;;;;25.82;49.46;99306.03;5076634;28;20503;-64
2022/08/15 10:29:47;;;;;;;3.53;2.37;;;;;;;25.81;49.30;99306.47;5089989;28;20456;-64
2022/08/15 10:32:23;;;;;;;3.93;2.37;;;;;;;25.80;49.40;99304.84;5081980;28;20429;-64
2022/08/15 10:34:54;;;;;;;4.77;2.33;;;;;;;25.82;48.92;99297.34;5073405;28;20467;-64
2022/08/15 10:37:26;;;;;;;4.43;3.07;;;;;;;25.84;48.54;99288.22;5087754;28;20462;-64
2022/08/15 10:40:11;;;;;;;4.10;2.70;;;;;;;25.86;48.94;99291.47;5080736;28;20895;-64
2022/08/15 10:43:20;;;;;;;6.60;3.03;;;;;;;25.84;48.73;99302.69;5087001;28;20514;-64
2022/08/15 10:45:50;;;;;;;5.33;2.43;;;;;;;25.85;48.64;99305.09;5009923;28;20443;-64
2022/08/15 10:48:34;;;;;;;5.37;3.03;;;;;;;25.86;48.39;99298.06;5013207;28;20433;-64
2022/08/15 10:51:26;;;;;;;3.63;2.93;;;;;;;25.86;48.83;99295.19;5063010;28;20503;-64
2022/08/15 10:54:10;;;;;;;5.03;2.23;;;;;;;25.78;48.29;99287.97;5083649;28;20421;-64
2022/08/15 10:56:38;;;;;;;4.70;2.70;;;;;;;25.87;48.88;99285.22;5075172;28;20409;-64
2022/08/15 10:59:10;;;;;;;7.40;3.03;;;;;;;25.87;48.40;99276.56;5071731;28;20433;-64
2022/08/15 11:01:36;;;;;;;6.70;2.83;;;;;;;25.91;48.70;99279.34;5054604;28;20461;-64
2022/08/15 11:04:05;;;;;;;3.37;2.30;;;;;;;25.94;48.36;99275.59;5054463;28;20538;-64
2022/08/15 11:06:34;;;;;;;5.20;2.80;;;;;;;25.93;48.42;99274.75;5070533;28;20476;-64
2022/08/15 11:09:10;;;;;;;4.60;2.90;;;;;;;25.99;48.40;99275.03;5078305;28;20465;-64
2022/08/15 11:11:55;;;;;;;4.30;2.93;;;;;;;26.04;48.51;99275.25;5071057;28;20563;-64
2022/08/15 11:14:26;;;;;;;5.97;3.17;;;;;;;25.99;48.38;99272.13;5070311;28;20428;-64
2022/08/15 11:16:52;;;;;;;5.00;2.60;;;;;;;26.04;48.86;99281.06;5087641;28;20945;-63
2022/08/15 11:19:25;;;;;;;4.87;2.67;;;;;;;26.03;49.18;99278.59;5088734;28;20507;-63
2022/08/15 11:21:58;;;;;;;4.80;2.83;;;;;;;26.00;48.79;99271.66;5092769;28;20178;-63
2022/08/15 11:24:37;;;;;;;4.63;2.70;;;;;;;26.01;48.84;99270.41;5083360;28;20525;-63
2022/08/15 11:27:17;;;;;;;4.50;2.93;;;;;;;26.03;48.80;99267.03;5088853;28;20432;-63
2022/08/15 11:29:44;;;;;;;11.27;3.07;;;;;;;26.07;48.20;99270.66;5091090;28;20462;-63
2022/08/15 11:32:12;;;;;;;6.30;2.87;;;;;;;26.09;49.01;99266.03;5092762;28;20976;-63
2022/08/15 11:34:40;;;;;;;5.00;3.00;;;;;;;26.09;48.07;99256.56;5055804;28;20892;-63
2022/08/15 11:37:39;;;;;;;6.00;3.30;;;;;;;26.05;48.46;99253.75;5070963;28;20420;-63
2022/08/15 11:40:07;;;;;;;6.07;3.37;;;;;;;26.14;48.05;99256.00;5073189;28;20432;-64
2022/08/15 11:42:38;;;;;;;5.73;3.63;;;;;;;26.14;48.04;99250.19;5090034;28;20511;-64
2022/08/15 11:45:13;;;;;;;4.77;3.37;;;;;;;26.10;48.43;99261.06;5088114;28;20570;-64
2022/08/15 11:48:02;;;;;;;5.50;3.03;;;;;;;26.09;48.43;99257.34;5071112;28;20494;-63
2022/08/15 11:50:36;;;;;;;4.90;3.57;;;;;;;26.19;47.50;99243.84;5068547;28;20525;-63
2022/08/15 11:53:05;;;;;;;4.10;2.70;;;;;;;26.18;48.05;99248.81;5054713;28;20426;-63
2022/08/15 11:55:32;;;;;;;6.97;3.53;;;;;;;26.15;48.05;99243.94;5070307;28;20422;-63
2022/08/15 11:58:02;;;;;;;6.90;3.07;;;;;;;26.14;48.67;99242.31;5071693;28;20421;-63
2022/08/15 12:00:36;;;;;;;6.23;3.60;;;;;;;26.16;48.67;99251.38;5070251;28;20436;-63
2022/08/15 12:03:16;;;;;;;4.73;3.50;;;;;;;26.29;48.51;99245.63;5075788;28;20851;-63
2022/08/15 12:05:42;;;;;;;8.23;3.30;;;;;;;26.28;47.81;99244.78;5080261;28;20440;-63
2022/08/15 12:08:07;;;;;;;4.70;2.70;;;;;;;26.27;48.32;99257.66;5090631;28;20432;-64
2022/08/15 12:10:39;;;;;;;5.10;3.53;;;;;;;26.31;48.33;99264.16;5086534;28;20616;-64